Portada
METAR-TAF:

METAR-TAF

Aeroports :

Anchorage, Alaska, Estats Units d'Amèrica

latitud: 61-10-28N, longitud: 149-59-46W, altitud: 44 m

Observació

L'informe es va fer fa 35 minuts, a les 14:53 UTC
Vent 4 kt del Nord
Temperatura -3°C
Humitat 80%
Pressió 1016 hPa
Visibilitat: 16.1 km
Núvols disperses a una alçada de 6000 ft
Cel ennuvolat a una alçada de 9500 ft

METAR: PANC 201453Z 35004KT 10SM SCT060 BKN095 M03/M06 A2999 RMK AO2 SLP159 T10331061 53005

Hora: 06:28 (15:28 UTC)

Pronòstic

L'informe es va fer fa 4 hores i 6 minuts, a les 11:22 UTC
Pronòstic vàlid del 20 a les 12 UTC al 21 a les 18 UTC
Vent 6 kt del Nord/Nord-Oest
Visibilitat: 10 km
Escasses núvols a una alçada de 6000 ft
Cel ennuvolat a una alçada de 9000 ft

TAF: PANC 201122Z 2012/2118 34006KT P6SM FEW060 BKN090

Observacions i pronòstics meteorològics de més de 4000 aeroports (METAR i TAF).

Les estacions disponibles són els punts grocs i vermells al mapa.

Posi el ratolí al punt desitjat per veure el nom de l'estació.

Feu clic per veure les observacions i els pronòstics meteorològics.

Per canviar el mapa: feu clic els botons verds amb una creu de color negre per apropar; al botó verd amb un guió per allunyar la imatge; o en les fletxes verdes per a mapes adjacents.


METAR-TAF: